Time;durP1;ratioP1;P1;durP2;ratioP2;P2;SDS_P1;SDS_P2;PMS_P1;PMS_P2;Temp;Humidity;BMP_temperature;BMP_pressure;BME280_temperature;BME280_humidity;BME280_pressure;Samples;Min_cycle;Max_cycle;Signal;HPM_P1;HPM_P2
2021/09/04 00:02:11;;;;;;;6.37;5.70;;;9.10;99.90;;;9.78;100.00;95207.00;2207844;57;27036;-60
2021/09/04 00:04:58;;;;;;;11.43;5.83;;;9.00;99.90;;;9.71;100.00;95198.00;2427467;55;27117;-60
2021/09/04 00:07:44;;;;;;;8.63;5.77;;;9.00;99.90;;;9.70;100.00;95199.00;2220630;55;26593;-61
2021/09/04 00:10:31;;;;;;;6.30;5.60;;;9.00;99.90;;;9.55;100.00;95208.00;2437040;54;26841;-60
2021/09/04 00:16:15;;;;;;;6.87;5.70;;;9.00;99.90;;;9.78;100.00;95178.00;2426635;55;34215;-59
2021/09/04 00:19:01;;;;;;;8.33;5.80;;;8.90;99.90;;;9.68;100.00;95194.00;2168347;56;26938;-60
2021/09/04 00:21:48;;;;;;;7.10;5.87;;;8.90;99.90;;;9.54;100.00;95193.00;2375168;56;26806;-60
2021/09/04 00:27:31;;;;;;;8.40;6.00;;;8.90;99.90;;;9.79;100.00;95182.00;2483661;53;33985;-60
2021/09/04 00:30:18;;;;;;;6.93;5.67;;;8.90;99.90;;;9.53;100.00;95182.00;2219426;54;26796;-62
2021/09/04 00:33:04;;;;;;;7.63;5.90;;;8.80;99.90;;;9.47;100.00;95189.00;2446886;55;26597;-60
2021/09/04 00:35:51;;;;;;;8.80;5.50;;;8.80;99.90;;;9.53;100.00;95186.00;2217257;54;27051;-60
2021/09/04 00:38:37;;;;;;;6.80;5.30;;;8.70;99.90;;;9.41;100.00;95184.00;2442938;53;26958;-60
2021/09/04 00:41:24;;;;;;;8.00;5.73;;;8.60;99.90;;;9.36;100.00;95184.00;2266051;54;26916;-60
2021/09/04 00:44:17;;;;;;;6.23;5.63;;;8.80;99.90;;;9.53;100.00;95180.00;2266152;54;27217;-60
2021/09/04 00:47:06;;;;;;;8.40;5.10;;;8.70;99.90;;;9.42;100.00;95188.00;2247557;54;26620;-60
2021/09/04 00:49:52;;;;;;;8.40;5.20;;;8.60;99.90;;;9.19;100.00;95185.00;2274171;54;27293;-60
2021/09/04 00:52:38;;;;;;;5.73;5.10;;;8.60;99.90;;;9.21;100.00;95189.00;2268990;54;26104;-60
2021/09/04 00:58:23;;;;;;;7.53;6.00;;;8.50;99.90;;;9.28;100.00;95176.00;2413635;55;33285;-60
2021/09/04 01:01:09;;;;;;;11.13;7.03;;;8.50;99.90;;;9.11;100.00;95190.00;2406654;56;27113;-61
2021/09/04 01:06:53;;;;;;;10.47;7.20;;;8.50;99.90;;;9.33;100.00;95172.00;2434209;54;35192;-60
2021/09/04 01:12:38;;;;;;;10.27;7.20;;;8.40;99.90;;;9.18;100.00;95175.00;2400935;55;34936;-60
2021/09/04 01:15:24;;;;;;;9.70;6.60;;;8.40;99.90;;;9.07;100.00;95186.00;2374781;56;25887;-60
2021/09/04 01:18:11;;;;;;;9.93;7.00;;;8.40;99.90;;;9.07;100.00;95186.00;2377601;56;26752;-60
2021/09/04 01:21:01;;;;;;;10.50;7.20;;;8.40;99.90;;;9.10;100.00;95178.00;2167051;56;26819;-60
2021/09/04 01:26:45;;;;;;;9.13;6.80;;;8.40;99.90;;;9.37;100.00;95161.00;2494165;52;33698;-60
2021/09/04 01:29:31;;;;;;;6.83;6.03;;;8.60;99.90;;;9.42;100.00;95178.00;2504659;53;26803;-60
2021/09/04 01:35:22;;;;;;;7.27;6.00;;;8.60;99.90;;;9.44;100.00;95163.00;2372722;55;34352;-60
2021/09/04 01:38:09;;;;;;;7.03;5.40;;;8.40;99.90;;;9.15;100.00;95173.00;2379278;55;26163;-60
2021/09/04 01:40:55;;;;;;;6.30;5.50;;;8.40;99.90;;;9.09;100.00;95164.00;2377576;56;26857;-60
2021/09/04 01:43:41;;;;;;;7.53;5.40;;;8.30;99.90;;;9.08;100.00;95161.00;2164416;55;26611;-60
2021/09/04 01:46:29;;;;;;;7.40;5.90;;;8.30;99.90;;;8.92;100.00;95167.00;2376824;55;26989;-60
2021/09/04 01:49:16;;;;;;;8.30;6.47;;;8.30;99.90;;;8.87;100.00;95170.00;2179398;56;26754;-60
2021/09/04 01:52:03;;;;;;;7.47;5.97;;;8.20;99.90;;;8.82;100.00;95169.00;2374707;56;27000;-60
2021/09/04 01:57:48;;;;;;;7.90;5.40;;;8.40;99.90;;;9.20;100.00;95155.00;2360571;55;34754;-60
2021/09/04 02:00:35;;;;;;;7.33;6.07;;;8.30;99.90;;;8.97;100.00;95160.00;2317818;57;26851;-60
2021/09/04 02:03:21;;;;;;;7.40;5.83;;;8.20;99.90;;;8.94;100.00;95149.00;2138713;58;26718;-60
2021/09/04 02:06:08;;;;;;;7.77;5.37;;;8.20;99.90;;;8.96;100.00;95158.00;2141398;58;26961;-61
2021/09/04 02:08:55;;;;;;;6.93;5.60;;;8.40;99.90;;;9.09;100.00;95158.00;2140134;58;26285;-60
2021/09/04 02:11:41;;;;;;;6.83;5.67;;;8.50;99.90;;;9.09;100.00;95151.00;2145716;58;26864;-60
2021/09/04 02:14:28;;;;;;;6.10;5.20;;;8.40;99.90;;;9.12;100.00;95149.00;2144088;58;26282;-60
2021/09/04 02:17:14;;;;;;;5.77;4.80;;;8.30;99.90;;;9.06;100.00;95147.00;2143800;58;26602;-60
2021/09/04 02:20:01;;;;;;;13.80;6.20;;;8.30;99.90;;;8.92;100.00;95151.00;2146094;58;27432;-60
2021/09/04 02:22:47;;;;;;;8.90;6.50;;;8.20;99.90;;;8.82;100.00;95140.00;2144759;58;27673;-60
2021/09/04 02:25:35;;;;;;;8.20;5.93;;;8.20;99.90;;;8.73;100.00;95128.00;2140093;58;26669;-60
2021/09/04 02:28:22;;;;;;;5.90;5.30;;;8.10;99.90;;;8.83;100.00;95145.00;2351763;57;26787;-60
2021/09/04 02:31:08;;;;;;;7.97;5.40;;;8.20;99.90;;;8.83;100.00;95147.00;2353164;57;27161;-60
2021/09/04 02:33:56;;;;;;;8.30;5.30;;;8.10;99.90;;;8.79;100.00;95138.00;2144352;57;26586;-60
2021/09/04 02:36:43;;;;;;;7.20;5.23;;;8.10;99.90;;;8.78;100.00;95142.00;2352641;57;26966;-60
2021/09/04 02:39:29;;;;;;;5.83;4.57;;;8.10;99.90;;;8.82;100.00;95135.00;2144332;57;26761;-60
2021/09/04 02:42:15;;;;;;;6.00;5.00;;;8.10;99.90;;;8.82;100.00;95136.00;2144087;57;26722;-61
2021/09/04 02:45:02;;;;;;;7.67;5.37;;;8.10;99.90;;;8.80;100.00;95140.00;2144391;57;26902;-61
2021/09/04 02:47:48;;;;;;;17.03;6.23;;;8.00;99.90;;;8.59;100.00;95137.00;2140755;57;26813;-61
2021/09/04 02:50:35;;;;;;;10.07;5.57;;;8.00;99.90;;;8.50;100.00;95132.00;2348483;57;26869;-60
2021/09/04 02:53:21;;;;;;;10.47;7.20;;;7.90;99.90;;;8.48;100.00;95135.00;2141228;57;26902;-62
2021/09/04 02:56:08;;;;;;;28.73;8.17;;;7.90;99.90;;;8.50;100.00;95128.00;2348238;57;26674;-61
2021/09/04 02:58:54;;;;;;;50.27;9.00;;;8.00;99.90;;;8.60;100.00;95131.00;2141397;57;26764;-61
2021/09/04 03:01:41;;;;;;;29.87;7.87;;;8.00;99.90;;;8.68;100.00;95134.00;2140732;57;26841;-61
2021/09/04 03:04:27;;;;;;;17.40;7.37;;;8.00;99.90;;;8.53;100.00;95132.00;2141435;57;26601;-61
2021/09/04 03:10:12;;;;;;;18.80;7.20;;;8.00;99.90;;;8.71;100.00;95118.00;2378922;55;33869;-61
2021/09/04 03:12:59;;;;;;;11.30;6.70;;;8.00;99.90;;;8.65;100.00;95133.00;2155810;58;26695;-61
2021/09/04 03:15:45;;;;;;;12.47;6.30;;;8.00;99.90;;;8.59;100.00;95139.00;2369584;56;27399;-62
2021/09/04 03:18:31;;;;;;;16.07;6.37;;;7.90;99.90;;;8.37;100.00;95131.00;2158085;56;26227;-61
2021/09/04 03:21:18;;;;;;;8.07;6.00;;;7.80;99.90;;;8.32;100.00;95138.00;2370222;56;26828;-61
2021/09/04 03:24:05;;;;;;;11.53;5.97;;;7.80;99.90;;;8.49;100.00;95139.00;2155736;56;26921;-62
2021/09/04 03:26:51;;;;;;;7.03;6.03;;;8.00;99.90;;;8.60;100.00;95136.00;2368828;56;26745;-61
2021/09/04 03:29:37;;;;;;;11.97;6.37;;;8.10;99.90;;;8.68;100.00;95133.00;2362256;56;26710;-61
2021/09/04 03:32:24;;;;;;;9.10;5.97;;;8.10;99.90;;;8.70;100.00;95132.00;2160094;57;26649;-61
2021/09/04 03:35:11;;;;;;;9.90;6.07;;;7.90;99.90;;;8.50;100.00;95130.00;2159748;57;26588;-61
2021/09/04 03:40:55;;;;;;;14.47;6.33;;;7.80;99.90;;;8.68;100.00;95113.00;2499351;52;33270;-61
2021/09/04 03:43:42;;;;;;;13.23;6.70;;;7.90;99.90;;;8.59;100.00;95119.00;2442825;55;27001;-61
2021/09/04 03:49:26;;;;;;;25.23;7.60;;;7.90;99.90;;;8.77;100.00;95114.00;2509873;52;33954;-61
2021/09/04 03:52:12;;;;;;;17.50;7.97;;;7.90;99.90;;;8.60;100.00;95121.00;2239461;55;26706;-61
2021/09/04 03:54:59;;;;;;;18.87;7.13;;;7.80;99.90;;;8.49;100.00;95128.00;2466632;54;26791;-61
2021/09/04 04:00:42;;;;;;;18.50;6.63;;;7.60;99.90;;;8.32;100.00;95112.00;2378806;55;33697;-61
2021/09/04 04:03:28;;;;;;;9.73;6.47;;;7.70;99.90;;;8.27;100.00;95130.00;2154596;58;26683;-61
2021/09/04 04:06:15;;;;;;;5.80;5.13;;;7.60;99.90;;;8.23;100.00;95128.00;2367588;57;26741;-62
2021/09/04 04:09:02;;;;;;;9.00;6.50;;;7.50;99.90;;;8.14;100.00;95125.00;2156454;58;26692;-61
2021/09/04 04:11:48;;;;;;;9.33;6.60;;;7.40;99.90;;;8.06;100.00;95127.00;2368117;57;26705;-61
2021/09/04 04:14:34;;;;;;;8.70;6.97;;;7.50;99.90;;;8.08;100.00;95130.00;2160689;56;26874;-62
2021/09/04 04:17:21;;;;;;;8.77;6.23;;;7.40;99.90;;;8.04;100.00;95132.00;2160322;56;26799;-62
2021/09/04 04:20:11;;;;;;;8.17;6.33;;;7.40;99.90;;;8.03;100.00;95137.00;2372448;56;26778;-62
2021/09/04 04:25:53;;;;;;;9.10;6.37;;;7.50;99.90;;;8.31;100.00;95121.00;2390782;55;33384;-61
2021/09/04 04:28:39;;;;;;;9.37;6.00;;;7.60;99.90;;;8.19;100.00;95133.00;2367172;57;26726;-61
2021/09/04 04:34:23;;;;;;;7.63;6.40;;;7.60;99.90;;;8.38;100.00;95116.00;2467963;54;33673;-61
2021/09/04 04:37:09;;;;;;;8.10;6.70;;;7.60;99.90;;;8.26;100.00;95123.00;2202627;56;26515;-61
2021/09/04 04:39:56;;;;;;;10.83;6.80;;;7.60;99.90;;;8.14;100.00;95125.00;2403023;55;26116;-61
2021/09/04 04:42:42;;;;;;;31.30;8.17;;;7.60;99.90;;;8.22;100.00;95122.00;2186097;56;27068;-61
2021/09/04 04:45:28;;;;;;;39.43;8.47;;;7.60;99.90;;;8.26;100.00;95133.00;2403430;56;26585;-62
2021/09/04 04:48:18;;;;;;;31.93;7.73;;;7.60;99.90;;;8.15;100.00;95131.00;2205835;56;26573;-61
2021/09/04 04:51:05;;;;;;;13.73;6.87;;;7.50;99.90;;;8.03;100.00;95132.00;2405776;55;26727;-61
2021/09/04 04:53:51;;;;;;;10.70;7.00;;;7.40;99.90;;;8.04;100.00;95132.00;2190295;56;26605;-61
2021/09/04 04:56:37;;;;;;;9.53;7.30;;;7.50;99.90;;;8.17;100.00;95132.00;2189212;56;27493;-61
2021/09/04 05:02:23;;;;;;;9.30;6.57;;;7.50;99.90;;;8.20;100.00;95118.00;2437580;54;33702;-62
2021/09/04 05:08:10;;;;;;;6.97;5.87;;;7.60;99.90;;;8.40;100.00;95125.00;2412008;55;33781;-61
2021/09/04 05:10:56;;;;;;;7.10;5.23;;;7.70;99.90;;;8.40;100.00;95136.00;2189477;55;27247;-61
2021/09/04 05:13:42;;;;;;;7.53;5.13;;;7.80;99.90;;;8.54;100.00;95132.00;2396189;56;26713;-61
2021/09/04 05:19:26;;;;;;;7.37;6.27;;;7.90;99.90;;;8.64;100.00;95125.00;2462555;53;34565;-62
2021/09/04 05:22:13;;;;;;;12.17;6.43;;;7.90;99.90;;;8.50;100.00;95135.00;2225852;55;27222;-64
2021/09/04 05:25:00;;;;;;;14.27;6.80;;;7.90;99.90;;;8.38;100.00;95133.00;2435249;55;27057;-62
2021/09/04 05:27:46;;;;;;;9.87;7.47;;;7.90;99.90;;;8.54;100.00;95136.00;2205433;55;26724;-62
2021/09/04 05:30:33;;;;;;;10.73;6.97;;;8.10;99.90;;;8.89;100.00;95144.00;2427977;54;26818;-62
2021/09/04 05:36:16;;;;;;;29.33;8.67;;;8.30;99.90;;;9.44;100.00;95131.00;2446202;55;33725;-61
2021/09/04 05:39:02;;;;;;;10.80;7.60;;;8.60;99.90;;;9.33;100.00;95137.00;2220908;55;26793;-62
2021/09/04 05:41:49;;;;;;;9.47;7.30;;;8.70;99.90;;;9.42;100.00;95146.00;2446426;55;26612;-62
2021/09/04 05:44:35;;;;;;;10.27;8.07;;;8.80;99.90;;;9.44;100.00;95132.00;2222301;55;26699;-62
2021/09/04 05:47:21;;;;;;;17.50;7.63;;;8.90;99.90;;;9.65;100.00;95141.00;2213493;55;27578;-62
2021/09/04 05:50:10;;;;;;;11.60;6.97;;;9.10;99.90;;;9.84;100.00;95136.00;2409180;55;26560;-62
2021/09/04 05:52:56;;;;;;;7.00;6.27;;;9.10;99.90;;;9.78;100.00;95134.00;2185812;56;26834;-62
2021/09/04 05:58:40;;;;;;;7.07;6.37;;;9.40;99.90;;;10.32;100.00;95122.00;2390542;55;34101;-64
2021/09/04 06:01:27;;;;;;;5.27;4.77;;;9.50;99.90;;;10.28;100.00;95131.00;2155677;56;27326;-63
2021/09/04 06:04:13;;;;;;;5.80;5.20;;;9.50;99.90;;;10.34;100.00;95128.00;2169629;56;26698;-63
2021/09/04 06:06:59;;;;;;;6.50;5.17;;;9.60;99.90;;;10.38;100.00;95132.00;2383216;56;26939;-64
2021/09/04 06:09:46;;;;;;;6.00;5.40;;;9.70;99.90;;;10.35;100.00;95130.00;2184171;57;26804;-63
2021/09/04 06:12:32;;;;;;;6.80;6.07;;;9.70;99.90;;;10.34;100.00;95135.00;2407145;55;26753;-64
2021/09/04 06:15:19;;;;;;;6.50;5.40;;;9.80;99.90;;;10.48;100.00;95132.00;2187514;57;26980;-63
2021/09/04 06:18:05;;;;;;;6.17;4.93;;;9.90;99.90;;;10.58;100.00;95141.00;2402355;55;26595;-63
2021/09/04 06:23:49;;;;;;;6.13;5.00;;;10.10;99.90;;;10.95;100.00;95134.00;2453428;54;34451;-64
2021/09/04 06:26:35;;;;;;;5.90;5.07;;;10.20;99.90;;;10.93;100.00;95147.00;2227482;55;26568;-64
2021/09/04 06:29:22;;;;;;;6.50;5.10;;;10.30;99.90;;;11.00;100.00;95146.00;2455576;55;26673;-64
2021/09/04 06:35:08;;;;;;;6.20;5.60;;;10.60;99.90;;;11.51;100.00;95139.00;2394743;54;33825;-65
2021/09/04 06:37:55;;;;;;;6.17;5.53;;;10.80;99.90;;;11.60;100.00;95153.00;2180538;56;27287;-65
2021/09/04 06:40:41;;;;;;;6.70;6.00;;;11.20;99.90;;;12.31;100.00;95148.00;2399100;56;26790;-64
2021/09/04 06:43:28;;;;;;;6.03;5.00;;;12.30;99.90;;;13.86;100.00;95151.00;2183398;56;26720;-65
2021/09/04 06:46:14;;;;;;;4.95;4.45;;;14.10;99.90;;;16.30;100.00;95129.00;2397883;56;26815;-61
2021/09/04 06:51:57;;;;;;;4.50;3.97;;;18.20;99.90;;;21.74;100.00;95119.00;2396808;54;33564;-64
2021/09/04 06:54:44;;;;;;;5.22;4.72;;;20.00;99.90;;;23.16;100.00;95116.00;2170067;56;27273;-64
2021/09/04 06:57:30;;;;;;;4.93;4.43;;;21.20;99.90;;;24.10;100.00;95114.00;2401719;56;26825;-64
2021/09/04 07:03:17;;;;;;;5.43;4.20;;;22.60;99.90;;;25.18;100.00;95116.00;2347470;57;34341;-63
2021/09/04 07:06:04;;;;;;;5.45;3.75;;;22.60;99.90;;;25.42;100.00;95114.00;2132215;58;26150;-61
2021/09/04 07:08:50;;;;;;;4.18;3.78;;;22.80;99.90;;;25.88;100.00;95112.00;2345353;57;27140;-61
2021/09/04 07:11:37;;;;;;;4.72;4.00;;;23.30;99.90;;;26.03;100.00;95107.00;2126325;58;26230;-61
2021/09/04 07:14:23;;;;;;;4.68;4.28;;;23.90;99.90;;;26.63;100.00;95108.00;2332821;57;26602;-61
2021/09/04 07:17:10;;;;;;;4.60;4.15;;;24.10;99.90;;;27.04;100.00;95117.00;2129455;58;26777;-62
2021/09/04 07:19:56;;;;;;;4.35;3.95;;;24.40;99.90;;;27.23;100.00;95115.00;2347248;57;26709;-61
2021/09/04 07:22:44;;;;;;;4.35;3.92;;;24.90;99.90;;;27.05;100.00;95116.00;2140180;58;26918;-62
2021/09/04 07:25:30;;;;;;;4.57;4.10;;;25.00;99.90;;;27.34;100.00;95122.00;2132459;58;27438;-63
2021/09/04 07:28:17;;;;;;;4.70;4.30;;;25.00;99.90;;;27.36;100.00;95111.00;2326626;57;26804;-62
2021/09/04 07:31:03;;;;;;;6.57;4.40;;;25.00;99.90;;;26.52;100.00;95115.00;2138177;58;26767;-62
2021/09/04 07:33:50;;;;;;;5.10;4.60;;;24.80;99.90;;;26.06;100.00;95120.00;2336348;57;26193;-62
2021/09/04 07:36:36;;;;;;;6.00;5.03;;;24.80;99.90;;;25.87;100.00;95122.00;2137433;58;26864;-62
2021/09/04 07:39:30;;;;;;;4.60;4.20;;;25.10;99.90;;;26.71;100.00;95124.00;2346333;57;27037;-62
2021/09/04 07:42:16;;;;;;;5.53;5.03;;;25.30;99.90;;;26.86;100.00;95131.00;2139620;58;25132;-62
2021/09/04 07:45:03;;;;;;;6.05;5.40;;;25.80;99.90;;;27.89;100.00;95127.00;2346017;57;26816;-62
2021/09/04 07:47:49;;;;;;;7.07;5.57;;;26.20;99.90;;;28.05;95.71;95130.00;2128295;58;26140;-62
2021/09/04 07:53:31;;;;;;;5.57;5.00;;;25.80;99.90;;;28.30;100.00;95123.00;2371368;55;34118;-65
2021/09/04 07:56:18;;;;;;;5.53;5.03;;;26.50;99.90;;;28.69;96.54;95127.00;2160045;56;25849;-64
2021/09/04 07:59:06;;;;;;;5.85;5.25;;;27.30;99.90;;;29.11;93.17;95127.00;2365181;56;25651;-64
2021/09/04 08:01:52;;;;;;;6.05;5.47;;;26.80;99.90;;;28.78;96.51;95128.00;2163778;57;26878;-64
2021/09/04 08:04:39;;;;;;;5.62;5.05;;;26.80;99.90;;;29.20;92.13;95131.00;2377426;56;27180;-64
2021/09/04 08:07:25;;;;;;;5.87;5.37;;;26.20;99.90;;;28.43;100.00;95129.00;2163289;56;27212;-63
2021/09/04 08:10:12;;;;;;;5.30;4.70;;;26.50;99.90;;;28.02;98.77;95128.00;2165656;56;25114;-63
2021/09/04 08:12:58;;;;;;;5.55;4.70;;;26.80;99.90;;;28.51;99.99;95129.00;2164198;56;27128;-64
2021/09/04 08:15:44;;;;;;;6.07;5.50;;;27.20;99.90;;;28.87;100.00;95119.00;2163991;56;26583;-64
2021/09/04 08:18:31;;;;;;;7.00;5.15;;;27.30;99.90;;;28.83;100.00;95123.00;2153707;56;26625;-62
2021/09/04 08:21:18;;;;;;;6.50;5.43;;;27.40;99.90;;;29.49;92.00;95123.00;2336877;56;25677;-61
2021/09/04 08:24:05;;;;;;;6.05;5.40;;;27.80;99.90;;;30.14;91.80;95127.00;2362478;56;25218;-64
2021/09/04 08:26:51;;;;;;;5.70;5.20;;;27.70;99.90;;;30.16;85.01;95129.00;2162786;57;25598;-64
2021/09/04 08:29:38;;;;;;;6.45;5.40;;;27.90;99.90;;;30.55;85.87;95124.00;2376428;56;25584;-63
2021/09/04 08:32:24;;;;;;;6.85;5.45;;;28.50;99.90;;;31.14;73.10;95137.00;2162582;57;26603;-63
2021/09/04 08:38:09;;;;;;;6.90;5.43;;;29.00;99.90;;;30.96;73.33;95141.00;2412251;55;32892;-64
2021/09/04 08:40:55;;;;;;;5.28;4.87;;;28.70;99.90;;;30.28;74.28;95132.00;2156782;58;25683;-65
2021/09/04 08:43:42;;;;;;;5.55;5.05;;;28.00;99.90;;;29.27;81.78;95139.00;2188796;56;27324;-65
2021/09/04 08:46:33;;;;;;;5.72;5.22;;;27.80;99.90;;;29.85;80.75;95131.00;2405873;56;25782;-64
2021/09/04 08:49:20;;;;;;;6.05;5.20;;;28.10;99.90;;;29.78;77.00;95132.00;2404348;56;26685;-64
2021/09/04 08:52:07;;;;;;;5.87;5.25;;;28.30;99.90;;;30.23;83.98;95127.00;2406866;56;26009;-63
2021/09/04 08:54:54;;;;;;;5.90;5.18;;;28.40;99.90;;;30.35;88.42;95125.00;2182905;57;25531;-63
2021/09/04 08:57:40;;;;;;;5.10;4.70;;;29.00;99.90;;;30.74;83.92;95128.00;2187164;57;26219;-63
2021/09/04 09:00:30;;;;;;;6.12;5.20;;;29.30;99.90;;;30.93;82.62;95130.00;2188149;57;25826;-63
2021/09/04 09:03:25;;;;;;;5.30;4.90;;;29.50;99.90;;;31.22;81.73;95128.00;2408278;56;25665;-63
2021/09/04 09:06:12;;;;;;;5.32;4.82;;;30.00;99.90;;;31.88;78.13;95124.00;2400547;56;25142;-63
2021/09/04 09:08:59;;;;;;;5.30;4.80;;;29.80;99.90;;;31.30;81.98;95127.00;2188165;57;25268;-63
2021/09/04 09:11:45;;;;;;;6.15;5.57;;;30.10;99.90;;;32.08;79.42;95129.00;2187724;57;25819;-63
2021/09/04 09:14:33;;;;;;;5.15;4.75;;;30.20;99.90;;;32.99;72.09;95127.00;2405477;56;25824;-63
2021/09/04 09:20:23;;;;;;;5.20;4.80;;;30.40;99.90;;;32.84;73.76;95125.00;2438045;54;33837;-63
2021/09/04 09:23:13;;;;;;;5.65;4.95;;;30.60;99.90;;;32.76;64.25;95120.00;2218150;56;25200;-63
2021/09/04 09:29:19;;;;;;;5.20;4.70;;;30.30;99.90;;;31.99;59.12;95118.00;2361860;55;34726;-65
2021/09/04 09:32:09;;;;;;;5.62;4.80;;;29.90;99.90;;;31.61;64.27;95120.00;2330922;58;27117;-65
2021/09/04 09:34:56;;;;;;;6.18;5.03;;;30.10;99.90;;;32.97;67.92;95108.00;2130096;58;25717;-65
2021/09/04 09:40:50;;;;;;;5.53;5.03;;;31.20;99.90;;;34.79;53.16;95103.00;2463311;53;33212;-63
2021/09/04 09:46:49;;;;;;;5.37;4.87;;;31.60;99.90;;;35.40;54.33;95105.00;2429398;55;33091;-63
2021/09/04 09:49:37;;;;;;;5.03;4.62;;;32.20;99.90;;;36.06;48.52;95114.00;2205948;56;26072;-63
2021/09/04 09:52:24;;;;;;;5.80;5.30;;;32.40;99.90;;;36.11;53.45;95097.00;2214973;56;25691;-63
2021/09/04 09:55:11;;;;;;;6.12;4.93;;;32.60;99.90;;;35.95;52.72;95092.00;2438750;55;25528;-63
2021/09/04 10:00:58;;;;;;;5.45;4.95;;;32.30;99.90;;;36.15;47.11;95085.00;2456832;54;32222;-63
2021/09/04 10:03:45;;;;;;;5.68;5.18;;;32.20;99.90;;;35.88;44.03;95107.00;2191928;55;25772;-63
2021/09/04 10:09:30;;;;;;;5.07;4.57;;;31.60;99.90;;;35.52;46.28;95093.00;2348804;56;32354;-65
2021/09/04 10:15:14;;;;;;;4.40;4.00;;;30.40;99.90;;;33.30;44.15;95082.00;2402212;55;32067;-65
2021/09/04 10:18:05;;;;;;;5.45;4.90;;;30.80;99.90;;;34.20;45.45;95088.00;2162870;56;25537;-63
2021/09/04 10:21:06;;;;;;;6.70;6.10;;;30.80;99.90;;;34.00;41.13;95079.00;2371464;56;25948;-63
2021/09/04 10:23:54;;;;;;;4.80;4.40;;;31.20;99.90;;;35.08;41.80;95086.00;2158624;56;25646;-63
2021/09/04 10:29:42;;;;;;;5.80;5.07;;;30.90;99.90;;;34.44;44.03;95071.00;2478124;53;31986;-63
2021/09/04 10:32:28;;;;;;;5.75;5.18;;;31.10;99.90;;;35.25;46.54;95070.00;2207700;55;25736;-63
2021/09/04 10:35:15;;;;;;;6.10;5.50;;;31.60;99.90;;;35.96;38.76;95082.00;2421341;55;25882;-63
2021/09/04 10:41:23;;;;;;;5.18;4.60;;;32.30;99.90;;;37.19;42.55;95068.00;2411179;54;33127;-63
2021/09/04 10:44:10;;;;;;;5.45;4.80;;;32.00;99.90;;;35.65;39.31;95073.00;2404268;55;26082;-63
2021/09/04 10:46:56;;;;;;;5.22;4.78;;;31.70;99.90;;;35.86;41.10;95080.00;2197060;55;25785;-63
2021/09/04 10:49:45;;;;;;;6.22;5.30;;;32.10;99.90;;;36.04;40.13;95070.00;2198482;55;25715;-63
2021/09/04 10:56:19;;;;;;;5.45;4.95;;;31.90;99.90;;;37.28;40.29;95077.00;2407671;55;32277;-63
2021/09/04 11:02:04;;;;;;;6.45;4.97;;;32.80;99.90;;;37.23;37.18;95069.00;2329583;57;34412;-65
2021/09/04 11:04:57;;;;;;;5.12;4.65;;;32.90;99.90;;;37.16;36.89;95069.00;2114289;58;26459;-64
2021/09/04 11:07:46;;;;;;;5.45;4.87;;;32.10;99.90;;;34.48;40.14;95072.00;2326925;57;25843;-65
2021/09/04 11:13:39;;;;;;;6.62;5.22;;;28.90;99.90;;;29.68;63.03;95061.00;2391223;55;33218;-64
2021/09/04 11:16:30;;;;;;;5.32;4.70;;;27.10;99.90;;;27.84;83.12;95054.00;2370404;56;26641;-64
2021/09/04 11:19:23;;;;;;;5.70;4.85;;;26.70;99.90;;;27.69;78.30;95055.00;2158352;57;25151;-65
2021/09/04 11:25:12;;;;;;;5.25;4.75;;;27.50;99.90;;;29.16;61.09;95054.00;2438483;55;34127;-65
2021/09/04 11:27:58;;;;;;;5.20;4.78;;;27.90;99.90;;;28.93;66.06;95049.00;2182843;56;26891;-64
2021/09/04 11:30:50;;;;;;;4.72;4.30;;;29.20;99.90;;;29.96;60.98;95049.00;2403421;55;26861;-64
2021/09/04 11:33:48;;;;;;;4.90;4.45;;;29.20;99.90;;;29.83;66.08;95050.00;2173546;56;26901;-64
2021/09/04 11:42:38;;;;;;;6.12;4.97;;;30.20;99.90;;;30.60;66.61;95047.00;2395790;55;34016;-64
2021/09/04 11:48:22;;;;;;;4.78;4.37;;;29.50;99.90;;;29.13;68.83;95043.00;2438276;55;33991;-65
2021/09/04 11:51:09;;;;;;;5.18;4.57;;;29.20;99.90;;;29.21;75.40;95046.00;2179803;56;26746;-65
2021/09/04 11:54:03;;;;;;;4.90;4.50;;;28.60;99.90;;;28.51;68.85;95042.00;2395931;56;26749;-64
2021/09/04 12:00:04;;;;;;;5.47;4.90;;;26.90;99.90;;;26.81;82.94;95043.00;2412578;55;33651;-64
2021/09/04 12:02:55;;;;;;;5.05;4.40;;;26.70;99.90;;;26.56;84.35;95035.00;2208810;55;25690;-64
2021/09/04 12:05:45;;;;;;;4.85;4.30;;;26.30;99.90;;;26.58;81.81;95036.00;2434122;55;27319;-64
2021/09/04 12:11:30;;;;;;;5.00;4.45;;;26.40;99.90;;;26.92;82.65;95026.00;2404754;54;33980;-66
2021/09/04 12:14:17;;;;;;;5.20;4.70;;;26.20;99.90;;;26.42;85.82;95031.00;2423225;55;27293;-65
2021/09/04 12:17:06;;;;;;;4.30;3.90;;;26.20;99.90;;;26.49;88.51;95024.00;2224094;54;26682;-64
2021/09/04 12:19:54;;;;;;;4.68;4.22;;;26.50;99.90;;;26.84;86.77;95020.00;2461617;54;27039;-64
2021/09/04 12:22:40;;;;;;;5.00;4.50;;;26.20;99.90;;;26.40;90.70;95020.00;2233472;54;26844;-64
2021/09/04 12:25:30;;;;;;;4.82;4.32;;;26.00;99.90;;;26.25;90.05;95021.00;2461467;54;26826;-64
2021/09/04 12:28:23;;;;;;;4.30;3.90;;;25.90;99.90;;;26.05;88.35;95026.00;2233723;54;26663;-64
2021/09/04 12:34:17;;;;;;;4.75;4.25;;;25.50;99.90;;;25.93;91.93;95018.00;2454173;54;34085;-64
2021/09/04 12:37:04;;;;;;;5.40;4.57;;;25.70;99.90;;;26.06;87.61;95023.00;2210625;55;26820;-64
2021/09/04 12:39:50;;;;;;;4.65;4.07;;;25.70;99.90;;;26.27;85.09;95027.00;2440622;54;26735;-64
2021/09/04 12:42:38;;;;;;;4.32;3.58;;;25.80;99.90;;;26.23;85.61;95025.00;2241233;55;26715;-64
2021/09/04 12:45:24;;;;;;;4.62;4.15;;;26.00;99.90;;;26.44;88.96;95024.00;2470970;54;26532;-64
2021/09/04 12:51:36;;;;;;;4.62;4.10;;;24.90;99.90;;;25.18;90.15;95021.00;2483557;53;33721;-64
2021/09/04 12:54:33;;;;;;;4.43;3.78;;;24.80;99.90;;;25.07;89.77;95017.00;2260596;53;26687;-64
2021/09/04 13:03:24;;;;;;;4.20;3.80;;;25.80;99.90;;;26.30;82.97;95007.00;2350825;55;35298;-64
2021/09/04 13:06:11;;;;;;;4.22;3.80;;;26.00;99.90;;;26.26;85.98;95012.00;2167968;57;26813;-64
2021/09/04 13:08:57;;;;;;;4.10;3.70;;;25.80;99.90;;;26.11;90.88;95009.00;2357444;55;27379;-64
2021/09/04 13:11:44;;;;;;;6.22;4.00;;;26.00;99.90;;;26.41;84.10;95003.00;2154774;58;26797;-64
2021/09/04 13:14:30;;;;;;;4.45;3.80;;;25.80;99.90;;;26.11;85.15;94993.00;2367850;56;27473;-64
2021/09/04 13:20:14;;;;;;;4.12;3.55;;;25.90;99.90;;;25.94;80.47;95006.00;2510487;52;33447;-64
2021/09/04 13:23:01;;;;;;;5.07;3.83;;;25.70;99.90;;;26.04;82.11;94998.00;2266384;53;26551;-64
2021/09/04 13:25:47;;;;;;;4.40;3.70;;;25.40;99.90;;;25.67;80.02;95005.00;2494448;53;26137;-63
2021/09/04 13:28:34;;;;;;;4.35;3.95;;;25.40;99.90;;;25.81;88.02;94995.00;2269590;53;26706;-64
2021/09/04 13:31:20;;;;;;;4.32;3.83;;;24.80;99.90;;;24.97;89.55;94988.00;2266743;54;26628;-63
2021/09/04 13:34:06;;;;;;;4.15;3.50;;;24.00;99.90;;;24.11;91.75;94989.00;2495631;54;26635;-63
2021/09/04 13:36:54;;;;;;;4.53;4.12;;;23.70;99.90;;;23.99;95.20;94985.00;2258378;54;27053;-63
2021/09/04 13:39:40;;;;;;;4.35;3.83;;;23.60;99.90;;;23.95;93.37;94986.00;2491675;54;26684;-63
2021/09/04 13:45:23;;;;;;;4.00;3.60;;;23.50;99.90;;;23.82;94.25;94981.00;2461854;54;34364;-63
2021/09/04 13:48:10;;;;;;;6.12;3.67;;;23.30;99.90;;;23.65;96.12;94981.00;2442519;54;26720;-63
2021/09/04 13:50:56;;;;;;;4.03;3.72;;;23.40;99.90;;;23.95;92.36;94975.00;2469928;54;26686;-64
2021/09/04 13:53:42;;;;;;;4.60;3.60;;;23.40;99.90;;;24.01;92.80;94981.00;2241574;55;26756;-64
2021/09/04 13:56:29;;;;;;;3.97;3.50;;;23.70;99.90;;;24.40;92.44;94966.00;2464533;54;27142;-63
2021/09/04 13:59:15;;;;;;;3.67;3.37;;;23.90;99.90;;;24.51;91.00;94979.00;2235867;55;26744;-63
2021/09/04 14:02:02;;;;;;;4.32;3.55;;;23.70;99.90;;;24.15;88.75;94974.00;2233462;55;26793;-63
2021/09/04 14:07:47;;;;;;;3.60;3.30;;;23.60;99.90;;;24.23;91.96;94971.00;2450004;53;33892;-63
2021/09/04 14:10:33;;;;;;;3.35;3.00;;;23.30;99.90;;;;;;2249451;54;26650;-63
2021/09/04 14:13:20;;;;;;;3.40;3.10;;;23.20;99.90;;;23.80;86.17;94970.00;2470013;54;26694;-63
2021/09/04 14:19:04;;;;;;;3.80;3.40;;;23.20;99.90;;;23.87;77.81;94963.00;2380420;55;34420;-63